Time;durP1;ratioP1;P1;durP2;ratioP2;P2;SDS_P1;SDS_P2;PMS_P1;PMS_P2;Temp;Humidity;BMP_temperature;BMP_pressure;BME280_temperature;BME280_humidity;BME280_pressure;Samples;Min_cycle;Max_cycle;Signal;HPM_P1;HPM_P2
2023/06/27 00:00:08;;;;;;;3.30;1.52;;;21.70;68.70;;;;;;5061416;28;20048;-94
2023/06/27 00:02:34;;;;;;;4.63;1.20;;;21.70;68.70;;;;;;5059746;28;20051;-95
2023/06/27 00:05:00;;;;;;;2.72;1.42;;;21.70;68.60;;;;;;5059110;28;20021;-95
2023/06/27 00:07:29;;;;;;;2.85;1.48;;;21.70;68.80;;;;;;5060933;28;20432;-95
2023/06/27 00:09:55;;;;;;;2.72;1.55;;;21.60;68.60;;;;;;5065081;28;20096;-96
2023/06/27 00:12:21;;;;;;;5.40;1.60;;;21.70;68.90;;;;;;5069309;28;20036;-93
2023/06/27 00:14:47;;;;;;;4.63;1.63;;;21.60;68.70;;;;;;5059204;28;20017;-96
2023/06/27 00:17:15;;;;;;;6.50;1.35;;;21.70;69.70;;;;;;5065947;28;20035;-95
2023/06/27 00:19:41;;;;;;;2.33;1.20;;;21.60;68.90;;;;;;5056584;28;20107;-95
2023/06/27 00:22:09;;;;;;;2.92;1.50;;;21.60;68.80;;;;;;5060055;28;20063;-95
2023/06/27 00:24:36;;;;;;;2.75;1.40;;;21.60;68.70;;;;;;5066879;28;20103;-95
2023/06/27 00:27:02;;;;;;;3.03;1.60;;;21.60;68.70;;;;;;5061384;28;20028;-96
2023/06/27 00:29:28;;;;;;;2.65;1.52;;;21.60;69.40;;;;;;5070454;28;20121;-95
2023/06/27 00:31:55;;;;;;;1.88;1.27;;;21.60;68.60;;;;;;5059503;28;20021;-95
2023/06/27 00:34:20;;;;;;;2.38;1.55;;;21.60;68.80;;;;;;5067638;28;20385;-96
2023/06/27 00:36:46;;;;;;;3.78;1.35;;;21.60;68.90;;;;;;5055470;28;20024;-93
2023/06/27 00:39:12;;;;;;;4.45;1.42;;;21.60;68.80;;;;;;5070521;28;20739;-95
2023/06/27 00:41:37;;;;;;;4.53;1.65;;;21.60;68.80;;;;;;5067266;28;20025;-94
2023/06/27 00:44:08;;;;;;;4.65;1.88;;;21.60;68.70;;;;;;5068551;28;20435;-95
2023/06/27 00:46:37;;;;;;;6.20;1.40;;;21.60;68.80;;;;;;5066993;28;20044;-95
2023/06/27 00:49:05;;;;;;;7.78;1.92;;;21.60;68.80;;;;;;5061423;28;20104;-94
2023/06/27 00:51:32;;;;;;;3.35;1.55;;;21.60;69.00;;;;;;5034706;28;20485;-96
2023/06/27 00:53:58;;;;;;;4.75;1.60;;;21.60;68.90;;;;;;5053632;28;20056;-95
2023/06/27 00:56:26;;;;;;;9.48;1.73;;;21.60;68.90;;;;;;5068921;28;20029;-95
2023/06/27 00:58:53;;;;;;;3.83;1.83;;;21.60;68.80;;;;;;5059293;28;20025;-94
2023/06/27 01:01:19;;;;;;;3.08;1.63;;;21.50;68.60;;;;;;5062013;28;20020;-95
2023/06/27 01:03:45;;;;;;;6.13;1.67;;;21.60;68.70;;;;;;5057773;28;20033;-95
2023/06/27 01:06:39;;;;;;;4.47;1.55;;;21.50;68.60;;;;;;5058064;28;20028;-95
2023/06/27 01:09:14;;;;;;;3.22;1.77;;;21.60;68.70;;;;;;5055779;28;20029;-95
2023/06/27 01:11:52;;;;;;;3.95;1.83;;;21.60;68.70;;;;;;5066483;28;20025;-95
2023/06/27 01:14:19;;;;;;;4.32;1.70;;;21.50;68.60;;;;;;5069122;28;20407;-94
2023/06/27 01:16:47;;;;;;;3.38;1.20;;;21.60;68.70;;;;;;5060407;28;20039;-93
2023/06/27 01:19:16;;;;;;;4.75;1.73;;;21.50;68.60;;;;;;5060206;28;20070;-95
2023/06/27 01:21:44;;;;;;;5.72;1.67;;;21.50;68.50;;;;;;5064134;28;20245;-94
2023/06/27 01:24:11;;;;;;;6.65;1.90;;;21.50;68.50;;;;;;5065787;28;21101;-95
2023/06/27 01:26:36;;;;;;;3.20;1.40;;;21.50;68.60;;;;;;5071188;28;20544;-95
2023/06/27 01:29:02;;;;;;;2.00;1.50;;;21.50;68.40;;;;;;5066686;28;20048;-94
2023/06/27 01:31:39;;;;;;;7.88;1.55;;;21.50;68.30;;;;;;5071549;28;20013;-93
2023/06/27 01:34:31;;;;;;;1.63;1.25;;;21.50;68.40;;;;;;5065447;28;20033;-94
2023/06/27 01:37:08;;;;;;;1.90;1.20;;;21.50;68.40;;;;;;5072126;28;20052;-94
2023/06/27 01:39:56;;;;;;;3.90;1.40;;;21.50;68.40;;;;;;5071818;28;20024;-95
2023/06/27 01:42:27;;;;;;;4.30;1.55;;;21.50;68.30;;;;;;5069543;28;20027;-93
2023/06/27 01:44:54;;;;;;;4.78;1.45;;;21.50;68.20;;;;;;5066861;28;20400;-93
2023/06/27 01:47:22;;;;;;;4.57;1.63;;;21.50;68.10;;;;;;5072266;28;20024;-95
2023/06/27 01:49:48;;;;;;;2.55;1.50;;;21.50;68.20;;;;;;5062874;28;20067;-94
2023/06/27 01:52:14;;;;;;;4.38;1.90;;;21.50;68.10;;;;;;5072705;28;20017;-92
2023/06/27 01:54:43;;;;;;;11.40;1.67;;;21.50;68.00;;;;;;5061951;28;20022;-93
2023/06/27 01:57:10;;;;;;;1.73;1.23;;;21.50;67.90;;;;;;5065871;28;20047;-94
2023/06/27 01:59:36;;;;;;;4.15;1.67;;;21.50;68.80;;;;;;5063575;28;20078;-94
2023/06/27 02:02:02;;;;;;;5.78;1.70;;;21.50;67.90;;;;;;5066366;28;20029;-93
2023/06/27 02:04:28;;;;;;;2.95;1.55;;;21.50;67.90;;;;;;5063607;28;20058;-94
2023/06/27 02:06:54;;;;;;;2.83;1.45;;;21.40;67.90;;;;;;5066064;28;20115;-93
2023/06/27 02:09:20;;;;;;;2.20;1.33;;;21.40;67.90;;;;;;5065912;28;20112;-94
2023/06/27 02:11:46;;;;;;;3.40;1.50;;;21.40;68.00;;;;;;5068878;28;20020;-94
2023/06/27 02:14:12;;;;;;;4.80;1.70;;;21.40;67.80;;;;;;5068807;28;20488;-94
2023/06/27 02:16:38;;;;;;;6.35;1.77;;;21.50;67.90;;;;;;5069900;28;20060;-95
2023/06/27 02:19:04;;;;;;;6.03;1.83;;;21.40;67.80;;;;;;5064389;28;20045;-94
2023/06/27 02:21:30;;;;;;;5.80;1.80;;;21.40;67.80;;;;;;5065679;28;20491;-94
2023/06/27 02:23:55;;;;;;;1.95;1.35;;;21.40;67.90;;;;;;5069734;28;20112;-89
2023/06/27 02:26:21;;;;;;;3.42;1.40;;;21.40;67.80;;;;;;5072434;28;20124;-94
2023/06/27 02:28:47;;;;;;;6.22;1.45;;;21.40;67.80;;;;;;5065216;28;20351;-94
2023/06/27 02:31:13;;;;;;;3.65;1.80;;;21.40;67.80;;;;;;5065594;28;20024;-93
2023/06/27 02:33:38;;;;;;;5.55;1.40;;;21.40;67.90;;;;;;5071023;28;20131;-94
2023/06/27 02:36:04;;;;;;;5.65;1.45;;;21.40;67.90;;;;;;5067900;28;20649;-93
2023/06/27 02:38:30;;;;;;;2.30;1.75;;;21.40;67.90;;;;;;5068342;28;20108;-94
2023/06/27 02:40:56;;;;;;;5.57;1.83;;;21.40;67.80;;;;;;5063939;28;20519;-95
2023/06/27 02:43:21;;;;;;;5.22;1.40;;;21.40;67.90;;;;;;5062271;28;20020;-91
2023/06/27 02:45:47;;;;;;;9.00;1.65;;;21.40;67.70;;;;;;5063041;28;20056;-94
2023/06/27 02:48:16;;;;;;;2.28;1.30;;;21.40;67.70;;;;;;5065736;28;20056;-95
2023/06/27 02:50:45;;;;;;;4.57;1.67;;;21.40;67.90;;;;;;5069885;28;20059;-92
2023/06/27 02:53:11;;;;;;;3.13;1.45;;;21.40;67.80;;;;;;5063241;28;20028;-93
2023/06/27 02:55:38;;;;;;;3.33;1.40;;;21.40;67.70;;;;;;5071319;28;20075;-94
2023/06/27 02:58:03;;;;;;;3.22;1.70;;;21.40;67.80;;;;;;5062756;28;20539;-94
2023/06/27 03:00:29;;;;;;;4.63;1.50;;;21.40;67.90;;;;;;5070089;28;20024;-94
2023/06/27 03:02:55;;;;;;;5.63;1.40;;;21.40;67.90;;;;;;5062612;28;20017;-94
2023/06/27 03:05:21;;;;;;;5.50;1.60;;;21.40;67.90;;;;;;5068288;28;20031;-94
2023/06/27 03:07:46;;;;;;;4.95;1.48;;;21.40;67.80;;;;;;5067802;28;20468;-94
2023/06/27 03:10:12;;;;;;;3.13;1.80;;;21.40;67.80;;;;;;5062514;28;20509;-93
2023/06/27 03:12:38;;;;;;;5.57;1.80;;;21.40;67.80;;;;;;5065964;28;20021;-94
2023/06/27 03:15:04;;;;;;;2.97;1.48;;;21.40;68.60;;;;;;5061191;28;20074;-94
2023/06/27 03:17:30;;;;;;;6.63;1.42;;;21.40;67.80;;;;;;5070173;28;20032;-94
2023/06/27 03:19:56;;;;;;;4.05;1.75;;;21.40;67.80;;;;;;5057137;28;20417;-93
2023/06/27 03:22:21;;;;;;;4.32;1.73;;;21.40;67.80;;;;;;5067060;28;20020;-94
2023/06/27 03:24:52;;;;;;;5.95;1.55;;;21.40;67.80;;;;;;5063797;28;20633;-93
2023/06/27 03:27:20;;;;;;;2.72;1.38;;;21.40;68.00;;;;;;5055943;28;20118;-93
2023/06/27 03:29:45;;;;;;;4.40;1.58;;;21.40;67.90;;;;;;5068984;28;20067;-95
2023/06/27 03:32:12;;;;;;;6.10;1.40;;;21.40;67.90;;;;;;5062293;28;20056;-94
2023/06/27 03:34:42;;;;;;;6.43;1.55;;;21.30;67.90;;;;;;5068263;28;20016;-94
2023/06/27 03:37:09;;;;;;;5.80;1.75;;;21.30;67.90;;;;;;5059836;28;20056;-94
2023/06/27 03:39:34;;;;;;;4.82;1.58;;;21.30;67.70;;;;;;5069766;28;20036;-94
2023/06/27 03:42:00;;;;;;;6.35;1.48;;;21.30;67.70;;;;;;5067590;28;20037;-94
2023/06/27 03:44:28;;;;;;;7.47;1.90;;;21.30;67.80;;;;;;5069697;28;20074;-93
2023/06/27 03:46:54;;;;;;;9.55;2.08;;;21.30;67.80;;;;;;5067234;28;20087;-92
2023/06/27 03:49:19;;;;;;;3.30;1.38;;;21.40;67.80;;;;;;5058185;28;20119;-93
2023/06/27 03:51:45;;;;;;;5.80;1.58;;;21.30;67.80;;;;;;5067803;28;20017;-94
2023/06/27 03:54:11;;;;;;;2.55;1.50;;;21.30;67.80;;;;;;5066409;28;20032;-94
2023/06/27 03:56:37;;;;;;;4.97;1.55;;;21.30;67.80;;;;;;5069155;28;20075;-92
2023/06/27 03:59:02;;;;;;;4.07;1.55;;;21.30;68.70;;;;;;5066444;28;20071;-94
2023/06/27 04:01:28;;;;;;;6.22;1.65;;;21.30;67.90;;;;;;5069783;28;20092;-94
2023/06/27 04:03:53;;;;;;;5.03;1.85;;;21.30;68.00;;;;;;5067646;28;20056;-93
2023/06/27 04:06:19;;;;;;;5.43;1.88;;;21.30;68.00;;;;;;5068368;28;20091;-93
2023/06/27 04:08:45;;;;;;;3.72;1.70;;;21.30;67.90;;;;;;5070915;28;20016;-94
2023/06/27 04:11:10;;;;;;;5.97;1.40;;;21.30;68.10;;;;;;5063132;28;20033;-92
2023/06/27 04:13:37;;;;;;;10.27;1.70;;;21.30;68.10;;;;;;5060001;28;20017;-92
2023/06/27 04:16:03;;;;;;;10.18;1.95;;;21.30;68.10;;;;;;5066488;28;20049;-93
2023/06/27 04:18:29;;;;;;;11.35;1.80;;;21.30;68.10;;;;;;5063321;28;20047;-93
2023/06/27 04:20:55;;;;;;;6.30;1.88;;;21.30;68.20;;;;;;5062306;28;20036;-93
2023/06/27 04:23:21;;;;;;;8.20;1.83;;;21.30;68.30;;;;;;5067246;28;20025;-93
2023/06/27 04:26:03;;;;;;;4.55;1.52;;;21.30;68.40;;;;;;5068056;28;20037;-93
2023/06/27 04:28:30;;;;;;;3.10;1.65;;;21.30;68.50;;;;;;5060435;28;20093;-94
2023/06/27 04:30:56;;;;;;;9.30;2.03;;;21.30;68.50;;;;;;5068990;28;20017;-94
2023/06/27 04:33:22;;;;;;;6.10;2.00;;;21.30;68.60;;;;;;5065200;28;20028;-93
2023/06/27 04:35:48;;;;;;;5.20;1.75;;;21.30;68.70;;;;;;5064656;28;20016;-93
2023/06/27 04:38:14;;;;;;;4.70;2.38;;;21.30;68.80;;;;;;5063534;28;20032;-93
2023/06/27 04:40:41;;;;;;;8.52;1.90;;;21.30;68.90;;;;;;5070681;28;20499;-93
2023/06/27 04:43:07;;;;;;;2.97;1.63;;;21.30;69.00;;;;;;5068577;28;20025;-93
2023/06/27 04:45:33;;;;;;;14.75;1.90;;;21.30;69.00;;;;;;5071321;28;20031;-93
2023/06/27 04:47:59;;;;;;;5.32;1.90;;;21.30;69.10;;;;;;5069413;28;20103;-93
2023/06/27 04:50:24;;;;;;;7.15;1.90;;;21.30;69.20;;;;;;5063566;28;20020;-92
2023/06/27 04:52:50;;;;;;;4.70;2.20;;;21.30;69.20;;;;;;5066372;28;20111;-93
2023/06/27 04:55:16;;;;;;;8.45;1.83;;;21.30;69.20;;;;;;5063745;28;20024;-92
2023/06/27 04:57:41;;;;;;;11.25;1.60;;;21.30;69.40;;;;;;5069657;28;20054;-92
2023/06/27 05:00:11;;;;;;;6.55;1.88;;;21.20;70.50;;;;;;5069299;28;20024;-93
2023/06/27 05:02:37;;;;;;;5.63;1.75;;;21.10;69.00;;;;;;5065434;28;20051;-93
2023/06/27 05:05:04;;;;;;;8.25;2.08;;;21.10;70.00;;;;;;5071303;28;20032;-93
2023/06/27 05:07:30;;;;;;;7.25;1.98;;;21.20;69.40;;;;;;5070453;28;20036;-92
2023/06/27 05:09:56;;;;;;;6.22;2.10;;;21.20;69.40;;;;;;5069895;28;20468;-93
2023/06/27 05:12:22;;;;;;;4.82;2.08;;;21.20;70.10;;;;;;5068267;28;20499;-93
2023/06/27 05:14:47;;;;;;;6.75;1.63;;;21.20;69.30;;;;;;5067715;28;20100;-94
2023/06/27 05:17:13;;;;;;;14.23;1.90;;;21.20;69.40;;;;;;5069600;28;20543;-92
2023/06/27 05:19:38;;;;;;;7.60;1.60;;;21.20;69.40;;;;;;5068498;28;20020;-89
2023/06/27 05:22:04;;;;;;;5.80;1.63;;;21.20;69.50;;;;;;5070760;28;20043;-93
2023/06/27 05:24:30;;;;;;;4.55;1.60;;;21.20;69.60;;;;;;5068239;28;20029;-93
2023/06/27 05:26:55;;;;;;;7.45;2.15;;;21.20;69.60;;;;;;5067843;28;20040;-93
2023/06/27 05:29:21;;;;;;;4.93;1.85;;;21.20;69.80;;;;;;5066226;28;20024;-94
2023/06/27 05:31:47;;;;;;;3.60;1.58;;;21.20;69.80;;;;;;5070718;28;20023;-93
2023/06/27 05:34:13;;;;;;;6.85;1.70;;;21.20;69.80;;;;;;5067697;28;20080;-92
2023/06/27 05:36:38;;;;;;;3.40;1.58;;;21.30;69.80;;;;;;5070023;28;20092;-93
2023/06/27 05:39:04;;;;;;;2.33;1.50;;;21.20;69.90;;;;;;5060983;28;20052;-94
2023/06/27 05:41:30;;;;;;;3.25;1.70;;;21.20;69.90;;;;;;5063047;28;20428;-93
2023/06/27 05:43:56;;;;;;;6.40;1.90;;;21.20;70.80;;;;;;5069460;28;20029;-94
2023/06/27 05:46:21;;;;;;;7.43;2.00;;;21.20;70.10;;;;;;5063336;28;20039;-92
2023/06/27 05:48:47;;;;;;;7.38;1.63;;;21.20;70.10;;;;;;5071256;28;20020;-92
2023/06/27 05:51:13;;;;;;;4.72;1.80;;;21.20;70.10;;;;;;5067403;28;20024;-94
2023/06/27 05:53:52;;;;;;;3.92;1.65;;;21.30;70.30;;;;;;5065190;28;20020;-94
2023/06/27 05:56:18;;;;;;;2.55;1.58;;;21.20;70.30;;;;;;5068420;28;20029;-93
2023/06/27 05:58:46;;;;;;;3.65;1.73;;;21.20;70.30;;;;;;5066505;28;20029;-93
2023/06/27 06:01:11;;;;;;;2.60;1.58;;;21.20;70.40;;;;;;5065201;28;20029;-93
2023/06/27 06:03:37;;;;;;;8.00;1.90;;;21.20;71.30;;;;;;5070369;28;20085;-93
2023/06/27 06:06:03;;;;;;;4.55;2.05;;;21.20;70.60;;;;;;5067198;28;20028;-94
2023/06/27 06:08:28;;;;;;;5.80;1.70;;;21.30;70.70;;;;;;5065615;28;20090;-94
2023/06/27 06:10:54;;;;;;;3.13;1.73;;;21.20;70.60;;;;;;5063069;28;20020;-94
2023/06/27 06:13:19;;;;;;;7.82;1.92;;;21.30;70.90;;;;;;5062074;28;20019;-94
2023/06/27 06:15:45;;;;;;;8.25;1.85;;;21.30;70.80;;;;;;5065713;28;20030;-91
2023/06/27 06:18:11;;;;;;;2.70;1.80;;;21.20;71.60;;;;;;5067783;28;20028;-94
2023/06/27 06:20:36;;;;;;;8.45;1.77;;;21.20;70.90;;;;;;5070473;28;20059;-93
2023/06/27 06:23:02;;;;;;;3.88;1.70;;;21.20;70.90;;;;;;5067029;28;20029;-94
2023/06/27 06:25:28;;;;;;;8.70;2.00;;;21.20;70.90;;;;;;5070147;28;20109;-93
2023/06/27 06:27:53;;;;;;;7.38;2.45;;;21.20;71.00;;;;;;5068027;28;20033;-93
2023/06/27 06:30:19;;;;;;;4.68;1.80;;;21.20;71.10;;;;;;5073228;28;20025;-92
2023/06/27 06:32:44;;;;;;;3.17;1.70;;;21.30;71.20;;;;;;5065582;28;20056;-94
2023/06/27 06:35:10;;;;;;;3.65;1.70;;;21.30;71.20;;;;;;5061240;28;20042;-92
2023/06/27 06:37:36;;;;;;;8.63;1.50;;;21.30;71.20;;;;;;5066939;28;20025;-92
2023/06/27 06:40:02;;;;;;;5.72;1.67;;;21.30;72.10;;;;;;5065203;28;20029;-90
2023/06/27 06:42:28;;;;;;;5.10;1.75;;;21.30;71.50;;;;;;5064133;28;20389;-94
2023/06/27 06:44:59;;;;;;;6.18;1.33;;;21.30;71.60;;;;;;5060427;28;20033;-94
2023/06/27 06:47:26;;;;;;;4.50;1.65;;;21.30;71.40;;;;;;5064254;28;20086;-94
2023/06/27 06:49:52;;;;;;;5.07;1.65;;;21.40;71.60;;;;;;5070849;28;20032;-94
2023/06/27 06:52:18;;;;;;;2.70;1.70;;;21.30;71.50;;;;;;5068151;28;20024;-95
2023/06/27 06:54:43;;;;;;;5.15;1.73;;;21.30;71.50;;;;;;5066668;28;20020;-92
2023/06/27 06:57:10;;;;;;;9.50;1.80;;;21.30;71.40;;;;;;5062982;28;20070;-94
2023/06/27 06:59:35;;;;;;;7.15;1.60;;;21.30;72.20;;;;;;5062276;28;20036;-94
2023/06/27 07:02:01;;;;;;;9.98;1.80;;;21.30;71.40;;;;;;5058809;28;20025;-92
2023/06/27 07:04:26;;;;;;;4.05;1.52;;;21.40;71.50;;;;;;5067081;28;20051;-92
2023/06/27 07:06:52;;;;;;;3.65;1.50;;;21.40;71.50;;;;;;5065974;28;20333;-92
2023/06/27 07:09:18;;;;;;;3.38;1.40;;;21.40;71.30;;;;;;5068895;28;20107;-95
2023/06/27 07:11:43;;;;;;;2.22;1.45;;;21.40;71.30;;;;;;5066256;28;20020;-90
2023/06/27 07:14:09;;;;;;;4.60;1.67;;;21.40;71.40;;;;;;5061826;28;20090;-91
2023/06/27 07:16:34;;;;;;;4.40;1.40;;;21.40;71.10;;;;;;5060938;28;20033;-94
2023/06/27 07:19:02;;;;;;;5.18;1.98;;;21.40;71.00;;;;;;5071236;28;20094;-92
2023/06/27 07:21:28;;;;;;;3.08;1.50;;;21.40;71.00;;;;;;5067896;28;20020;-93
2023/06/27 07:23:53;;;;;;;6.72;1.73;;;21.50;70.90;;;;;;5069060;28;20031;-91
2023/06/27 07:26:19;;;;;;;3.42;1.90;;;21.50;70.90;;;;;;5070463;28;20016;-92
2023/06/27 07:28:47;;;;;;;4.10;1.70;;;21.50;70.80;;;;;;5062317;28;20024;-91
2023/06/27 07:31:13;;;;;;;3.92;1.40;;;21.40;71.00;;;;;;5068293;28;20027;-92
2023/06/27 07:33:39;;;;;;;7.53;2.40;;;21.50;70.80;;;;;;5069664;28;20028;-94
2023/06/27 07:36:04;;;;;;;5.80;1.92;;;21.50;70.80;;;;;;5066206;28;20031;-94
2023/06/27 07:38:31;;;;;;;7.70;1.85;;;21.50;71.00;;;;;;5067157;28;20551;-92
2023/06/27 07:40:57;;;;;;;4.80;1.77;;;21.50;70.60;;;;;;5066857;28;20025;-92
2023/06/27 07:43:23;;;;;;;7.88;2.35;;;21.50;70.70;;;;;;5065232;28;21150;-93
2023/06/27 07:45:48;;;;;;;5.82;1.65;;;21.50;71.30;;;;;;5064369;28;20031;-93
2023/06/27 07:48:14;;;;;;;4.93;1.88;;;21.50;70.90;;;;;;5066491;28;20154;-92
2023/06/27 07:50:40;;;;;;;9.88;2.40;;;21.50;70.90;;;;;;5065180;28;20017;-92
2023/06/27 07:53:05;;;;;;;6.13;1.92;;;21.50;70.70;;;;;;5068418;28;20021;-93
2023/06/27 07:55:31;;;;;;;5.30;1.70;;;21.50;70.60;;;;;;5064208;28;20016;-92
2023/06/27 07:57:57;;;;;;;6.18;1.52;;;21.50;70.80;;;;;;5067603;28;20036;-93
2023/06/27 08:00:22;;;;;;;4.53;1.88;;;21.50;70.80;;;;;;5067181;28;20313;-88
2023/06/27 08:02:48;;;;;;;2.92;1.70;;;21.50;70.30;;;;;;5064953;28;20024;-84
2023/06/27 08:05:14;;;;;;;20.48;2.40;;;21.50;70.40;;;;;;5066525;28;20044;-85
2023/06/27 08:07:40;;;;;;;12.88;3.53;;;21.50;70.50;;;;;;5062788;28;20027;-85
2023/06/27 08:10:07;;;;;;;3.70;2.20;;;21.50;70.70;;;;;;5061387;28;20020;-86
2023/06/27 08:12:32;;;;;;;4.18;1.90;;;21.50;70.80;;;;;;5064241;28;20016;-85
2023/06/27 08:14:58;;;;;;;6.78;2.03;;;21.50;71.00;;;;;;5066233;28;20031;-85
2023/06/27 08:17:24;;;;;;;6.93;2.10;;;21.50;71.10;;;;;;5064425;28;20131;-85
2023/06/27 08:19:49;;;;;;;3.95;1.77;;;21.50;70.70;;;;;;5065322;28;20016;-85
2023/06/27 08:22:15;;;;;;;5.47;2.03;;;21.50;70.80;;;;;;5063608;28;20029;-85
2023/06/27 08:24:41;;;;;;;8.13;1.90;;;21.40;70.50;;;;;;5066353;28;20031;-85
2023/06/27 08:27:08;;;;;;;5.40;1.40;;;21.50;70.70;;;;;;5062541;28;20336;-85
2023/06/27 08:29:33;;;;;;;4.32;1.55;;;21.50;70.80;;;;;;5065272;28;20017;-85
2023/06/27 08:31:59;;;;;;;5.82;1.83;;;21.50;71.00;;;;;;5061750;28;20542;-85
2023/06/27 08:34:31;;;;;;;3.83;1.73;;;21.50;71.10;;;;;;5062149;28;21039;-85
2023/06/27 08:36:57;;;;;;;2.55;1.75;;;21.50;71.00;;;;;;5062048;28;20070;-85
2023/06/27 08:39:24;;;;;;;9.98;1.70;;;21.50;71.10;;;;;;5063159;28;20020;-85
2023/06/27 08:41:50;;;;;;;12.60;1.70;;;21.50;71.00;;;;;;5062069;28;20039;-85
2023/06/27 08:44:16;;;;;;;7.53;1.98;;;21.50;71.00;;;;;;5061585;28;20027;-85
2023/06/27 08:46:44;;;;;;;3.97;1.50;;;21.50;71.00;;;;;;5065028;28;20112;-84
2023/06/27 08:49:12;;;;;;;4.45;1.88;;;21.60;71.10;;;;;;5061834;28;20036;-85
2023/06/27 08:51:39;;;;;;;12.07;2.17;;;21.60;70.90;;;;;;5062962;28;20036;-84
2023/06/27 08:54:15;;;;;;;5.45;1.52;;;21.60;71.00;;;;;;5060313;28;20021;-85
2023/06/27 08:56:41;;;;;;;6.32;1.55;;;21.60;71.10;;;;;;5062186;28;20660;-85
2023/06/27 08:59:11;;;;;;;5.30;1.67;;;21.60;71.10;;;;;;5063027;28;20116;-84
2023/06/27 09:01:38;;;;;;;4.65;1.67;;;21.50;71.20;;;;;;5061721;28;20070;-85
2023/06/27 09:04:04;;;;;;;4.20;1.63;;;21.50;71.10;;;;;;5063769;28;20078;-84
2023/06/27 09:06:30;;;;;;;6.90;1.65;;;21.50;71.20;;;;;;5062436;28;20020;-85
2023/06/27 09:08:56;;;;;;;6.25;2.00;;;21.50;70.70;;;;;;5066266;28;20070;-84
2023/06/27 09:11:24;;;;;;;10.65;2.25;;;21.60;70.90;;;;;;5065819;28;20073;-84
2023/06/27 09:13:49;;;;;;;5.45;1.63;;;21.60;70.90;;;;;;5056688;28;20013;-84
2023/06/27 09:16:15;;;;;;;5.93;1.73;;;21.60;70.90;;;;;;5050842;28;20037;-85
2023/06/27 09:18:41;;;;;;;9.45;1.58;;;21.60;71.00;;;;;;5066107;28;20107;-86
2023/06/27 09:21:07;;;;;;;6.50;1.80;;;21.60;70.80;;;;;;5063414;28;20658;-84
2023/06/27 09:23:32;;;;;;;5.70;1.92;;;21.60;70.70;;;;;;5065037;28;20167;-84
2023/06/27 09:26:12;;;;;;;10.65;2.17;;;21.60;70.80;;;;;;5059237;28;20021;-84
2023/06/27 09:28:51;;;;;;;3.60;1.38;;;21.50;70.90;;;;;;5065115;28;20025;-84
2023/06/27 09:31:21;;;;;;;2.70;1.67;;;21.50;71.10;;;;;;5056225;28;20037;-84
2023/06/27 09:33:48;;;;;;;4.00;1.90;;;21.50;71.20;;;;;;5059038;28;20404;-85
2023/06/27 09:36:28;;;;;;;5.05;2.15;;;21.50;71.30;;;;;;5064038;28;20106;-85
2023/06/27 09:38:56;;;;;;;3.28;1.67;;;21.50;71.30;;;;;;5064185;28;20028;-84
2023/06/27 09:41:21;;;;;;;4.78;2.10;;;21.60;71.30;;;;;;5057489;28;20013;-84
2023/06/27 09:43:51;;;;;;;4.07;1.50;;;21.60;71.30;;;;;;5062339;28;20009;-85
2023/06/27 09:46:20;;;;;;;3.70;1.65;;;21.60;71.20;;;;;;5058791;28;20032;-85
2023/06/27 09:48:46;;;;;;;5.73;2.20;;;21.60;71.00;;;;;;5061521;28;20028;-85
2023/06/27 09:51:11;;;;;;;3.83;1.65;;;21.60;71.00;;;;;;5069205;28;20016;-84
2023/06/27 09:53:37;;;;;;;6.20;2.17;;;21.60;71.10;;;;;;5067293;28;20020;-85
2023/06/27 09:56:03;;;;;;;5.22;1.90;;;21.60;71.10;;;;;;5068768;28;20032;-84
2023/06/27 09:58:30;;;;;;;8.82;1.85;;;21.60;71.20;;;;;;5062230;28;20035;-84
2023/06/27 10:01:06;;;;;;;4.05;1.77;;;21.60;70.90;;;;;;5067324;28;20059;-85
2023/06/27 10:03:33;;;;;;;3.22;1.67;;;21.60;71.00;;;;;;5068990;28;20040;-85
2023/06/27 10:06:00;;;;;;;7.13;1.88;;;21.60;71.00;;;;;;5068164;28;20031;-85
2023/06/27 10:08:27;;;;;;;5.57;2.08;;;21.60;71.00;;;;;;5067146;28;20472;-84
2023/06/27 10:10:55;;;;;;;4.30;1.98;;;21.60;71.10;;;;;;5065575;28;20095;-84
2023/06/27 10:13:21;;;;;;;5.43;2.00;;;21.60;71.20;;;;;;5068458;28;20024;-84
2023/06/27 10:15:48;;;;;;;6.15;2.03;;;21.60;71.30;;;;;;5055467;28;20508;-84
2023/06/27 10:18:13;;;;;;;4.10;1.85;;;21.60;71.40;;;;;;5064638;28;20044;-85
2023/06/27 10:20:39;;;;;;;8.30;1.55;;;21.60;71.40;;;;;;5062694;28;20032;-84
2023/06/27 10:23:06;;;;;;;4.78;1.63;;;21.60;71.30;;;;;;5063884;28;20362;-85
2023/06/27 10:25:31;;;;;;;3.80;1.65;;;21.60;71.30;;;;;;5062301;28;20036;-84
2023/06/27 10:28:08;;;;;;;5.72;2.10;;;21.60;71.70;;;;;;5062433;28;20029;-84
2023/06/27 10:30:44;;;;;;;5.05;2.00;;;21.60;71.60;;;;;;5057563;28;20032;-84
2023/06/27 10:33:28;;;;;;;4.72;2.05;;;21.60;71.50;;;;;;5064912;28;20075;-84
2023/06/27 10:36:00;;;;;;;3.30;1.67;;;21.60;71.30;;;;;;5064069;28;20066;-84
2023/06/27 10:38:37;;;;;;;4.50;1.80;;;21.60;71.20;;;;;;5063488;28;20692;-85
2023/06/27 10:41:06;;;;;;;3.15;1.67;;;21.60;71.20;;;;;;5062426;28;20102;-84
2023/06/27 10:44:07;;;;;;;8.65;2.05;;;21.60;71.20;;;;;;5062159;28;20326;-85
2023/06/27 10:46:33;;;;;;;4.13;1.83;;;21.60;71.20;;;;;;5058829;28;20052;-83
2023/06/27 10:49:03;;;;;;;4.43;1.48;;;21.60;71.30;;;;;;5063213;28;20024;-84
2023/06/27 10:51:43;;;;;;;5.90;1.73;;;21.60;71.30;;;;;;5058711;28;20071;-83
2023/06/27 10:54:09;;;;;;;4.80;1.60;;;21.70;71.40;;;;;;5063443;28;20098;-84
2023/06/27 10:56:40;;;;;;;9.48;1.77;;;21.70;71.40;;;;;;5061078;28;20488;-84
2023/06/27 10:59:09;;;;;;;4.90;1.67;;;21.60;71.30;;;;;;5061614;28;20488;-85
2023/06/27 11:01:40;;;;;;;6.28;1.95;;;21.70;71.30;;;;;;5061954;28;20093;-85
2023/06/27 11:04:25;;;;;;;5.20;1.80;;;21.70;71.40;;;;;;5062965;28;20393;-83
2023/06/27 11:07:00;;;;;;;6.57;2.38;;;21.70;71.30;;;;;;5061236;28;20028;-84
2023/06/27 11:09:30;;;;;;;5.07;1.67;;;21.70;71.40;;;;;;5061412;28;20029;-83
2023/06/27 11:12:17;;;;;;;3.72;1.90;;;21.70;71.40;;;;;;5064317;28;20017;-84
2023/06/27 11:14:45;;;;;;;1.70;1.40;;;21.70;71.40;;;;;;5063254;28;20028;-85
2023/06/27 11:17:17;;;;;;;6.55;2.08;;;21.70;71.40;;;;;;5067340;28;20043;-85
2023/06/27 11:19:43;;;;;;;12.90;2.22;;;21.70;71.40;;;;;;5063128;28;20119;-84
2023/06/27 11:22:10;;;;;;;9.70;1.80;;;21.70;71.30;;;;;;5069806;28;20029;-84
2023/06/27 11:24:36;;;;;;;3.33;1.70;;;21.70;71.40;;;;;;5064306;28;20032;-84
2023/06/27 11:27:06;;;;;;;5.50;1.80;;;21.70;71.40;;;;;;5062447;28;20110;-83
2023/06/27 11:29:33;;;;;;;5.95;1.90;;;21.70;71.40;;;;;;5061099;28;20433;-84
2023/06/27 11:31:59;;;;;;;8.00;1.58;;;21.70;71.40;;;;;;5062428;28;20021;-84
2023/06/27 11:34:25;;;;;;;4.15;2.00;;;21.70;71.50;;;;;;5063433;28;20025;-84
2023/06/27 11:36:53;;;;;;;5.22;1.85;;;21.70;71.40;;;;;;5060840;28;20485;-85
2023/06/27 11:39:18;;;;;;;5.53;1.90;;;21.70;71.30;;;;;;5066052;28;20028;-84
2023/06/27 11:41:45;;;;;;;3.17;1.70;;;21.70;71.40;;;;;;5057721;28;20027;-84
2023/06/27 11:44:12;;;;;;;5.53;1.80;;;21.70;71.50;;;;;;5061999;28;20380;-84
2023/06/27 11:46:50;;;;;;;5.28;2.20;;;21.70;71.40;;;;;;5066166;28;20044;-84
2023/06/27 11:49:20;;;;;;;3.88;1.90;;;21.70;71.50;;;;;;5058025;28;20089;-84
2023/06/27 11:51:46;;;;;;;2.65;2.00;;;21.70;71.30;;;;;;5063084;28;20420;-84
2023/06/27 11:54:19;;;;;;;4.78;1.88;;;21.70;71.40;;;;;;5062952;28;20021;-85
2023/06/27 11:56:45;;;;;;;6.22;2.10;;;21.70;71.30;;;;;;5062552;28;20021;-85
2023/06/27 11:59:13;;;;;;;6.65;1.90;;;21.70;71.30;;;;;;5057010;28;20028;-85
2023/06/27 12:01:40;;;;;;;3.80;1.92;;;21.70;71.00;;;;;;5065129;28;20131;-85
2023/06/27 12:04:12;;;;;;;6.07;2.13;;;21.70;71.30;;;;;;5067803;28;20052;-85
2023/06/27 12:06:38;;;;;;;5.85;1.98;;;21.70;71.10;;;;;;5066340;28;20028;-85
2023/06/27 12:09:07;;;;;;;10.20;1.83;;;21.70;71.30;;;;;;5064889;28;20021;-84
2023/06/27 12:11:34;;;;;;;6.05;1.90;;;21.70;71.30;;;;;;5061680;28;20050;-85
2023/06/27 12:14:04;;;;;;;4.15;1.98;;;21.70;71.40;;;;;;5057539;28;20107;-84
2023/06/27 12:16:35;;;;;;;3.22;1.90;;;21.70;71.40;;;;;;5060034;28;20029;-83
2023/06/27 12:19:10;;;;;;;5.60;1.92;;;21.70;71.40;;;;;;5055813;28;20127;-83
2023/06/27 12:21:36;;;;;;;6.60;1.90;;;21.70;71.30;;;;;;5065198;28;20017;-85
2023/06/27 12:24:04;;;;;;;7.90;1.80;;;21.70;71.30;;;;;;5067291;28;20472;-85
2023/06/27 12:26:29;;;;;;;3.45;1.75;;;21.70;71.10;;;;;;5058020;28;20024;-85
2023/06/27 12:29:00;;;;;;;5.43;1.92;;;21.80;71.30;;;;;;5059671;28;20025;-84
2023/06/27 12:31:27;;;;;;;6.40;2.30;;;21.80;71.40;;;;;;5062783;28;20025;-84
2023/06/27 12:33:53;;;;;;;6.38;2.00;;;21.80;71.30;;;;;;5058252;28;20041;-85
2023/06/27 12:36:23;;;;;;;6.55;2.05;;;21.80;71.30;;;;;;5060090;28;20025;-83
2023/06/27 12:38:49;;;;;;;;;;;21.70;71.30;;;;;;5063058;28;20078;-84
2023/06/27 12:41:17;;;;;;;3.55;1.52;;;21.70;71.30;;;;;;5056530;28;20326;-83
2023/06/27 12:43:43;;;;;;;8.50;1.90;;;21.70;71.20;;;;;;5057950;28;20477;-85
2023/06/27 12:46:09;;;;;;;5.60;1.90;;;21.80;71.30;;;;;;5056949;28;20036;-84